Time;durP1;ratioP1;P1;durP2;ratioP2;P2;SDS_P1;SDS_P2;PMS_P1;PMS_P2;Temp;Humidity;BMP_temperature;BMP_pressure;BME280_temperature;BME280_humidity;BME280_pressure;Samples;Min_cycle;Max_cycle;Signal;HPM_P1;HPM_P2
2023/12/27 00:01:21;;;;;;;3.42;1.58;;;;;;;6.74;100.00;97870.56;5011313;28;20052;-63
2023/12/27 00:03:48;;;;;;;5.82;1.75;;;;;;;6.68;100.00;97871.44;5012566;28;20044;-65
2023/12/27 00:06:14;;;;;;;2.47;1.33;;;;;;;6.73;100.00;97868.09;5011489;28;20125;-63
2023/12/27 00:08:41;;;;;;;2.22;1.13;;;;;;;6.84;100.00;97874.66;5011481;28;20509;-64
2023/12/27 00:11:07;;;;;;;3.85;1.55;;;;;;;6.84;100.00;97861.19;5010595;28;20046;-64
2023/12/27 00:13:34;;;;;;;2.97;1.30;;;;;;;6.89;100.00;97858.66;5011928;28;20097;-65
2023/12/27 00:16:01;;;;;;;2.42;1.30;;;;;;;6.95;100.00;97849.75;5009496;28;20047;-64
2023/12/27 00:18:27;;;;;;;4.22;1.63;;;;;;;6.83;100.00;97852.31;4992702;28;20435;-63
2023/12/27 00:20:54;;;;;;;3.13;1.50;;;;;;;6.70;100.00;97866.66;4991126;28;20492;-65
2023/12/27 00:23:21;;;;;;;3.53;1.48;;;;;;;6.66;100.00;97875.38;5007875;28;20038;-64
2023/12/27 00:25:47;;;;;;;4.55;1.67;;;;;;;6.62;100.00;97883.88;5010120;28;20038;-64
2023/12/27 00:28:14;;;;;;;3.50;1.48;;;;;;;6.55;100.00;97880.38;5008795;28;20057;-63
2023/12/27 00:30:40;;;;;;;2.03;1.17;;;;;;;6.50;100.00;97880.19;5011074;28;20133;-65
2023/12/27 00:33:07;;;;;;;2.80;1.30;;;;;;;6.43;100.00;97866.78;5011472;28;20044;-63
2023/12/27 00:35:34;;;;;;;5.10;1.60;;;;;;;6.37;100.00;97855.00;5012243;28;20699;-65
2023/12/27 00:38:00;;;;;;;3.60;1.52;;;;;;;6.36;100.00;97858.72;5012200;28;20097;-63
2023/12/27 00:40:27;;;;;;;4.07;1.90;;;;;;;6.37;100.00;97854.16;5011565;28;20038;-63
2023/12/27 00:42:53;;;;;;;5.82;1.60;;;;;;;6.40;100.00;97858.28;5012851;28;20038;-65
2023/12/27 00:45:20;;;;;;;5.22;1.85;;;;;;;6.40;100.00;97859.13;5010453;28;20591;-65
2023/12/27 00:47:47;;;;;;;3.10;1.45;;;;;;;6.37;100.00;97860.38;5012562;28;20436;-64
2023/12/27 00:50:13;;;;;;;3.08;1.58;;;;;;;6.39;100.00;97857.47;5013732;28;20076;-64
2023/12/27 00:52:41;;;;;;;3.42;1.40;;;;;;;6.35;100.00;97851.69;5012718;28;20046;-64
2023/12/27 00:55:08;;;;;;;6.55;1.77;;;;;;;6.44;100.00;97865.72;5010216;28;20541;-65
2023/12/27 00:57:34;;;;;;;7.32;1.73;;;;;;;6.47;100.00;97856.41;5012008;28;20096;-63
2023/12/27 01:00:03;;;;;;;4.03;1.50;;;;;;;6.46;100.00;97854.75;5010504;28;20050;-63
2023/12/27 01:02:30;;;;;;;3.88;1.60;;;;;;;6.46;100.00;97852.06;5009173;28;20042;-63
2023/12/27 01:04:56;;;;;;;3.22;1.63;;;;;;;6.44;100.00;97860.34;5012688;28;20038;-64
2023/12/27 01:07:23;;;;;;;4.25;1.40;;;;;;;6.35;100.00;97854.38;5010561;28;20582;-65
2023/12/27 01:09:49;;;;;;;6.80;1.75;;;;;;;6.32;100.00;97859.34;5009588;28;20049;-64
2023/12/27 01:12:16;;;;;;;5.18;1.50;;;;;;;6.29;100.00;97859.75;5010712;28;20042;-65
2023/12/27 01:14:43;;;;;;;2.63;1.30;;;;;;;6.27;100.00;97862.69;5010997;28;20033;-63
2023/12/27 01:17:10;;;;;;;4.07;1.67;;;;;;;6.29;100.00;97855.22;5008609;28;20097;-64
2023/12/27 01:19:37;;;;;;;3.30;1.65;;;;;;;6.35;100.00;97861.63;5010197;28;20563;-65
2023/12/27 01:22:04;;;;;;;3.95;1.58;;;;;;;6.43;100.00;97863.25;5008498;28;20050;-63
2023/12/27 01:24:30;;;;;;;2.70;1.45;;;;;;;6.38;100.00;97853.13;5001473;28;20456;-64
2023/12/27 01:26:57;;;;;;;3.72;1.33;;;;;;;6.37;100.00;97849.63;5009898;28;20046;-63
2023/12/27 01:29:24;;;;;;;2.88;1.30;;;;;;;6.38;100.00;97837.81;5008577;28;20433;-64
2023/12/27 01:31:50;;;;;;;5.60;1.45;;;;;;;6.30;100.00;97842.63;4982802;28;20110;-64
2023/12/27 01:34:18;;;;;;;2.80;1.20;;;;;;;6.28;100.00;97850.06;5000859;28;20049;-65
2023/12/27 01:36:50;;;;;;;3.90;1.48;;;;;;;6.26;100.00;97852.16;5011648;28;20497;-65
2023/12/27 01:39:17;;;;;;;2.83;1.30;;;;;;;6.27;100.00;97846.56;5010150;28;20077;-64
2023/12/27 01:41:44;;;;;;;4.93;1.83;;;;;;;6.28;100.00;97856.28;5011686;28;20045;-63
2023/12/27 01:44:11;;;;;;;5.68;1.73;;;;;;;6.31;100.00;97858.53;5008979;28;20045;-64
2023/12/27 01:46:38;;;;;;;3.47;1.60;;;;;;;6.37;100.00;97855.00;5006826;28;20045;-63
2023/12/27 01:49:04;;;;;;;4.75;1.63;;;;;;;6.38;100.00;97856.63;5005867;28;20084;-64
2023/12/27 01:51:31;;;;;;;2.50;1.20;;;;;;;6.36;100.00;97857.88;5007204;28;20045;-63
2023/12/27 01:54:01;;;;;;;3.83;1.67;;;;;;;6.36;100.00;97856.03;5009543;28;20040;-64
2023/12/27 01:56:27;;;;;;;3.65;1.42;;;;;;;6.37;100.00;97855.00;5008275;28;20044;-64
2023/12/27 01:58:54;;;;;;;3.72;1.50;;;;;;;6.39;100.00;97852.09;5008786;28;20037;-64
2023/12/27 02:01:21;;;;;;;3.90;1.50;;;;;;;6.40;100.00;97863.66;5008896;28;20058;-64
2023/12/27 02:03:48;;;;;;;5.07;1.70;;;;;;;6.40;100.00;97855.59;5009507;28;20065;-63
2023/12/27 02:06:17;;;;;;;4.03;1.50;;;;;;;6.36;100.00;97868.66;5009233;28;20042;-65
2023/12/27 02:08:45;;;;;;;2.92;1.45;;;;;;;6.32;100.00;97857.50;5001955;28;20141;-65
2023/12/27 02:11:11;;;;;;;3.92;1.55;;;;;;;6.32;100.00;97852.13;5008475;28;20492;-65
2023/12/27 02:13:41;;;;;;;4.60;2.05;;;;;;;6.37;100.00;97855.00;5011447;28;20095;-64
2023/12/27 02:16:08;;;;;;;5.53;1.83;;;;;;;6.43;100.00;97852.47;5010687;28;20045;-63
2023/12/27 02:18:36;;;;;;;4.60;1.52;;;;;;;6.47;100.00;97845.63;5007775;28;20257;-64
2023/12/27 02:21:04;;;;;;;2.83;1.30;;;;;;;6.46;100.00;97847.53;5010323;28;20037;-65
2023/12/27 02:23:32;;;;;;;2.72;1.23;;;;;;;6.45;100.00;97848.53;5003281;28;20548;-63
2023/12/27 02:26:00;;;;;;;6.20;1.63;;;;;;;6.46;100.00;97836.75;5010233;28;20041;-65
2023/12/27 02:28:26;;;;;;;4.25;1.45;;;;;;;6.50;100.00;97837.97;5007460;28;20058;-63
2023/12/27 02:30:54;;;;;;;4.47;1.48;;;;;;;6.49;100.00;97836.31;5010058;28;20498;-64
2023/12/27 02:33:21;;;;;;;4.07;1.95;;;;;;;6.48;100.00;97842.75;5009809;28;20053;-65
2023/12/27 02:35:48;;;;;;;3.28;1.30;;;;;;;6.48;100.00;97842.75;5010166;28;20699;-65
2023/12/27 02:38:14;;;;;;;4.15;1.40;;;;;;;6.48;100.00;97841.91;5009609;28;20056;-63
2023/12/27 02:40:41;;;;;;;4.07;1.23;;;;;;;6.43;100.00;97841.72;5008336;28;20050;-64
2023/12/27 02:43:08;;;;;;;2.25;1.20;;;;;;;6.44;100.00;97838.81;5008681;28;20116;-65
2023/12/27 02:45:34;;;;;;;2.30;1.10;;;;;;;6.46;100.00;97826.00;4991478;28;21353;-63
2023/12/27 02:48:01;;;;;;;2.33;1.17;;;;;;;6.40;100.00;97823.31;4987904;28;20042;-63
2023/12/27 02:50:28;;;;;;;3.83;1.15;;;;;;;6.37;100.00;97822.72;5009164;28;20579;-65
2023/12/27 02:52:55;;;;;;;6.07;1.83;;;;;;;6.33;100.00;97816.13;5010868;28;20580;-64
2023/12/27 02:55:21;;;;;;;3.65;1.50;;;;;;;6.23;100.00;97818.44;5007238;28;20049;-63
2023/12/27 02:57:48;;;;;;;2.55;1.20;;;;;;;6.14;100.00;97820.53;5009646;28;20042;-65
2023/12/27 03:00:15;;;;;;;6.45;1.17;;;;;;;6.08;100.00;97819.50;5008884;28;20132;-63
2023/12/27 03:02:42;;;;;;;4.28;1.10;;;;;;;6.08;100.00;97807.94;5009440;28;20038;-65
2023/12/27 03:05:11;;;;;;;4.05;1.55;;;;;;;6.06;100.00;97805.47;5007104;28;20048;-64
2023/12/27 03:07:38;;;;;;;2.67;1.23;;;;;;;6.10;100.00;97808.53;5006560;28;20085;-64
2023/12/27 03:10:05;;;;;;;4.28;1.30;;;;;;;6.06;100.00;97801.94;5006028;28;20052;-65
2023/12/27 03:12:31;;;;;;;5.03;1.00;;;;;;;5.99;100.00;97804.63;5020341;28;20133;-63
2023/12/27 03:14:58;;;;;;;2.90;1.27;;;;;;;5.84;100.00;97799.50;5006189;28;20116;-65
2023/12/27 03:17:25;;;;;;;4.85;1.20;;;;;;;5.65;100.00;97802.03;5004131;28;21304;-63
2023/12/27 03:19:51;;;;;;;4.10;1.40;;;;;;;5.58;100.00;97803.88;5004803;28;20045;-63
2023/12/27 03:22:18;;;;;;;4.20;1.23;;;;;;;5.55;100.00;97805.13;5004709;28;20046;-64
2023/12/27 03:24:45;;;;;;;2.25;1.08;;;;;;;5.52;100.00;97799.31;5012047;28;20053;-65
2023/12/27 03:27:11;;;;;;;3.88;1.33;;;;;;;5.41;100.00;97798.94;4996972;28;20050;-63
2023/12/27 03:29:38;;;;;;;4.47;1.58;;;;;;;5.24;100.00;97797.72;5013206;28;20072;-64
2023/12/27 03:32:04;;;;;;;2.72;1.23;;;;;;;5.14;100.00;97788.22;5013386;28;20068;-65
2023/12/27 03:34:31;;;;;;;4.38;1.50;;;;;;;5.06;100.00;97797.28;5005751;28;20042;-65
2023/12/27 03:36:58;;;;;;;4.68;1.52;;;;;;;5.05;100.00;97800.19;5013711;28;20046;-64
2023/12/27 03:39:24;;;;;;;2.30;1.20;;;;;;;5.00;100.00;97805.34;5011854;28;20576;-65
2023/12/27 03:41:51;;;;;;;7.22;1.50;;;;;;;4.97;100.00;97800.41;5012388;28;20044;-64
2023/12/27 03:44:17;;;;;;;2.38;1.30;;;;;;;4.84;100.00;97802.03;5011435;28;20050;-65
2023/12/27 03:46:44;;;;;;;3.60;1.55;;;;;;;4.67;100.00;97799.72;5013683;28;20240;-64
2023/12/27 03:49:10;;;;;;;3.60;1.35;;;;;;;4.63;100.00;97800.31;4975564;28;20049;-62
2023/12/27 03:51:37;;;;;;;4.35;1.38;;;;;;;4.58;100.00;97800.94;5010490;28;20061;-65
2023/12/27 03:54:04;;;;;;;2.75;1.48;;;;;;;4.63;100.00;97803.00;5012954;28;20073;-63
2023/12/27 03:56:30;;;;;;;4.47;1.40;;;;;;;4.63;100.00;97794.97;5013257;28;20070;-64
2023/12/27 03:58:57;;;;;;;4.30;1.40;;;;;;;4.64;100.00;97792.06;5011885;28;20100;-65
2023/12/27 04:01:24;;;;;;;4.43;1.40;;;;;;;4.71;100.00;97796.66;5009994;28;20049;-63
2023/12/27 04:03:50;;;;;;;3.83;1.83;;;;;;;4.68;100.00;97793.31;5010921;28;20034;-62
2023/12/27 04:06:18;;;;;;;3.90;1.40;;;;;;;4.74;100.00;97794.38;5011335;28;20045;-65
2023/12/27 04:08:46;;;;;;;3.45;1.50;;;;;;;4.78;100.00;97794.78;5009392;28;20045;-65
2023/12/27 04:11:13;;;;;;;5.15;1.67;;;;;;;4.98;100.00;97794.81;5009002;28;20053;-64
2023/12/27 04:13:40;;;;;;;5.80;1.63;;;;;;;5.01;100.00;97793.59;5010968;28;20064;-65
2023/12/27 04:16:07;;;;;;;6.07;1.45;;;;;;;5.04;100.00;97785.94;5010604;28;20566;-63
2023/12/27 04:18:33;;;;;;;3.58;1.25;;;;;;;4.90;100.00;97782.41;5010514;28;20073;-65
2023/12/27 04:21:00;;;;;;;4.10;1.45;;;;;;;4.83;100.00;97778.88;5012399;28;20064;-64
2023/12/27 04:23:27;;;;;;;2.92;1.60;;;;;;;4.80;100.00;97777.44;5006305;28;20049;-64
2023/12/27 04:25:55;;;;;;;2.72;1.20;;;;;;;4.80;100.00;97771.28;5003375;28;20042;-65
2023/12/27 04:28:21;;;;;;;3.13;1.48;;;;;;;4.83;100.00;97773.53;5008793;28;20052;-64
2023/12/27 04:30:48;;;;;;;7.65;1.70;;;;;;;4.75;100.00;97757.66;5010718;28;20583;-63
2023/12/27 04:33:15;;;;;;;2.40;1.25;;;;;;;4.67;100.00;97761.34;5008279;28;20046;-62
2023/12/27 04:35:42;;;;;;;4.45;1.48;;;;;;;4.63;100.00;97763.59;5008304;28;20497;-65
2023/12/27 04:38:13;;;;;;;4.55;1.73;;;;;;;4.68;100.00;97768.34;5007545;28;20045;-62
2023/12/27 04:40:46;;;;;;;3.50;1.70;;;;;;;4.68;100.00;97766.50;5008096;28;20042;-65
2023/12/27 04:43:13;;;;;;;4.05;1.33;;;;;;;4.72;100.00;97760.72;5006150;28;20103;-64
2023/12/27 04:45:40;;;;;;;3.50;1.40;;;;;;;4.67;100.00;97764.84;5008448;28;20049;-64
2023/12/27 04:48:07;;;;;;;5.28;1.75;;;;;;;4.75;100.00;97765.69;5007265;28;20509;-62
2023/12/27 04:50:34;;;;;;;4.75;1.70;;;;;;;4.89;100.00;97775.41;4998789;28;20050;-64
2023/12/27 04:53:02;;;;;;;6.63;1.50;;;;;;;4.99;100.00;97768.78;5007891;28;20145;-64
2023/12/27 04:55:28;;;;;;;7.72;1.95;;;;;;;4.95;100.00;97773.75;4986787;28;20058;-65
2023/12/27 04:57:55;;;;;;;6.30;1.92;;;;;;;5.04;100.00;97772.53;5001591;28;20109;-64
2023/12/27 05:00:24;;;;;;;4.22;1.63;;;;;;;5.10;100.00;97770.88;5009360;28;20069;-62
2023/12/27 05:02:52;;;;;;;4.50;1.70;;;;;;;5.08;100.00;97775.59;5009876;28;20112;-63
2023/12/27 05:05:18;;;;;;;4.70;1.55;;;;;;;5.13;100.00;97769.63;5008482;28;20168;-65
2023/12/27 05:07:46;;;;;;;4.85;1.70;;;;;;;5.08;100.00;97768.41;5011309;28;20045;-63
2023/12/27 05:10:13;;;;;;;4.43;1.45;;;;;;;5.15;100.00;97763.03;5009963;28;20421;-63
2023/12/27 05:12:40;;;;;;;3.75;1.70;;;;;;;5.19;100.00;97766.09;5008672;28;20133;-62
2023/12/27 05:15:07;;;;;;;3.63;1.48;;;;;;;5.20;100.00;97765.09;5009255;28;20499;-64
2023/12/27 05:17:33;;;;;;;4.35;1.67;;;;;;;5.23;100.00;97761.97;4993845;28;20046;-64
2023/12/27 05:20:00;;;;;;;2.95;1.52;;;;;;;5.27;100.00;97757.84;5008773;28;20056;-63
2023/12/27 05:22:27;;;;;;;3.17;1.65;;;;;;;5.31;100.00;97752.91;5008582;28;20046;-65
2023/12/27 05:24:54;;;;;;;3.85;1.38;;;;;;;5.33;100.00;97742.75;5013393;28;20052;-64
2023/12/27 05:27:20;;;;;;;4.13;1.63;;;;;;;5.29;100.00;97750.41;5011156;28;20048;-64
2023/12/27 05:29:47;;;;;;;4.05;1.63;;;;;;;5.19;100.00;97753.53;5011248;28;20120;-64
2023/12/27 05:32:14;;;;;;;2.40;1.20;;;;;;;5.03;100.00;97756.63;5009554;28;20045;-62
2023/12/27 05:34:40;;;;;;;4.32;1.50;;;;;;;4.95;100.00;97753.09;5010949;28;20743;-64
2023/12/27 05:37:08;;;;;;;4.05;1.83;;;;;;;4.90;100.00;97752.91;5010695;28;20052;-65
2023/12/27 05:39:35;;;;;;;3.65;1.50;;;;;;;4.71;100.00;97759.91;5004415;28;20042;-65
2023/12/27 05:42:02;;;;;;;4.00;1.75;;;;;;;4.50;100.00;97756.34;5011094;28;20125;-64
2023/12/27 05:44:28;;;;;;;3.13;1.30;;;;;;;4.37;100.00;97751.81;5009248;28;20107;-63
2023/12/27 05:46:55;;;;;;;3.08;1.63;;;;;;;4.32;100.00;97748.91;5010652;28;20472;-65
2023/12/27 05:49:22;;;;;;;5.47;1.80;;;;;;;4.09;100.00;97749.25;5001897;28;20034;-63
2023/12/27 05:51:49;;;;;;;8.10;1.90;;;;;;;4.03;100.00;97745.50;5010143;28;20044;-64
2023/12/27 05:54:15;;;;;;;5.50;1.80;;;;;;;3.93;100.00;97734.31;5007623;28;20048;-64
2023/12/27 05:56:42;;;;;;;4.28;1.95;;;;;;;3.84;100.00;97739.03;5002770;28;20042;-64
2023/12/27 05:59:08;;;;;;;6.53;1.95;;;;;;;3.67;100.00;97747.41;5007805;28;20663;-64
2023/12/27 06:01:35;;;;;;;4.80;2.05;;;;;;;3.67;100.00;97751.91;5001313;28;20042;-64
2023/12/27 06:04:03;;;;;;;3.92;1.98;;;;;;;3.60;100.00;97755.41;4991273;28;20531;-61
2023/12/27 06:06:30;;;;;;;7.05;2.63;;;;;;;3.48;100.00;97762.34;4992276;28;20410;-63
2023/12/27 06:08:56;;;;;;;7.57;2.03;;;;;;;3.47;100.00;97766.03;5007540;28;20520;-63
2023/12/27 06:11:23;;;;;;;8.73;2.72;;;;;;;3.60;100.00;97773.31;5007521;28;20038;-64
2023/12/27 06:13:49;;;;;;;4.88;2.53;;;;;;;3.51;100.00;97762.75;5006969;28;20057;-63
2023/12/27 06:16:16;;;;;;;5.25;2.28;;;;;;;3.31;100.00;97735.06;5006624;28;20038;-63
2023/12/27 06:18:43;;;;;;;6.03;2.13;;;;;;;3.23;100.00;97726.16;5006736;28;20085;-63
2023/12/27 06:21:10;;;;;;;5.28;2.05;;;;;;;3.19;100.00;97732.06;5005271;28;20046;-64
2023/12/27 06:23:37;;;;;;;3.38;1.90;;;;;;;3.21;100.00;97738.06;5006595;28;20536;-62
2023/12/27 06:26:05;;;;;;;5.88;2.47;;;;;;;3.14;100.00;97740.69;5009936;28;20134;-65
2023/12/27 06:28:32;;;;;;;5.47;2.20;;;;;;;3.06;100.00;97733.63;5008857;28;20045;-64
2023/12/27 06:30:59;;;;;;;4.97;2.25;;;;;;;2.95;100.00;97740.34;5010223;28;20049;-62
2023/12/27 06:33:25;;;;;;;5.15;2.58;;;;;;;2.92;100.00;97742.59;5008565;28;20042;-64
2023/12/27 06:35:52;;;;;;;5.50;2.20;;;;;;;2.84;100.00;97748.91;5009132;28;20266;-64
2023/12/27 06:38:19;;;;;;;7.22;2.47;;;;;;;2.81;100.00;97751.97;5007922;28;20108;-63
2023/12/27 06:40:45;;;;;;;6.43;1.92;;;;;;;2.85;100.00;97763.94;5008897;28;20046;-62
2023/12/27 06:43:12;;;;;;;8.60;2.90;;;;;;;2.92;100.00;97761.31;5007446;28;20050;-64
2023/12/27 06:45:38;;;;;;;4.15;2.00;;;;;;;2.86;100.00;97747.69;5009396;28;20077;-64
2023/12/27 06:48:06;;;;;;;5.88;2.33;;;;;;;3.04;100.00;97750.91;5008568;28;20533;-64
2023/12/27 06:50:32;;;;;;;4.28;2.10;;;;;;;3.07;100.00;97726.44;5007711;28;20038;-64
2023/12/27 06:52:59;;;;;;;4.50;2.17;;;;;;;3.18;100.00;97738.47;5009289;28;20111;-62
2023/12/27 06:55:25;;;;;;;7.00;3.78;;;;;;;3.28;100.00;97730.91;5007235;28;20078;-63
2023/12/27 06:57:52;;;;;;;9.07;2.88;;;;;;;3.33;100.00;97733.00;5008447;28;20121;-64
2023/12/27 07:00:19;;;;;;;5.20;2.00;;;;;;;3.31;100.00;97737.72;5011014;28;20541;-65
2023/12/27 07:02:45;;;;;;;4.15;2.13;;;;;;;3.21;100.00;97738.88;5011456;28;20117;-64
2023/12/27 07:05:12;;;;;;;5.25;2.10;;;;;;;3.31;100.00;97753.78;5002022;28;20056;-64
2023/12/27 07:07:39;;;;;;;5.45;2.28;;;;;;;3.34;100.00;97745.34;5010785;28;20103;-64
2023/12/27 07:10:06;;;;;;;4.47;2.33;;;;;;;3.40;100.00;97739.22;5004517;28;20050;-64
2023/12/27 07:12:38;;;;;;;6.25;2.28;;;;;;;3.31;100.00;97737.72;5007161;28;20513;-62
2023/12/27 07:15:08;;;;;;;6.65;2.35;;;;;;;3.34;100.00;97738.16;5012692;28;20445;-65
2023/12/27 07:17:34;;;;;;;4.72;2.03;;;;;;;3.26;100.00;97732.97;4999517;28;20054;-64
2023/12/27 07:20:01;;;;;;;5.05;2.20;;;;;;;3.29;100.00;97727.22;4999079;28;20043;-63
2023/12/27 07:22:27;;;;;;;7.70;2.40;;;;;;;3.19;100.00;97727.56;5008143;28;20057;-63
2023/12/27 07:24:57;;;;;;;6.85;2.45;;;;;;;3.08;100.00;97726.25;5009486;28;20065;-64
2023/12/27 07:27:23;;;;;;;7.03;2.85;;;;;;;3.15;100.00;97733.47;5008918;28;20053;-62
2023/12/27 07:29:50;;;;;;;7.55;3.53;;;;;;;3.24;100.00;97738.50;5010612;28;20042;-64
2023/12/27 07:32:20;;;;;;;6.63;2.80;;;;;;;3.27;100.00;97739.16;5008934;28;20060;-64
2023/12/27 07:34:47;;;;;;;6.68;3.35;;;;;;;3.23;100.00;97738.69;5010649;28;20042;-64
2023/12/27 07:37:13;;;;;;;8.88;4.65;;;;;;;3.15;100.00;97733.47;5008333;28;20112;-62
2023/12/27 07:39:40;;;;;;;8.52;4.10;;;;;;;3.17;100.00;97736.81;5005221;28;20053;-62
2023/12/27 07:42:07;;;;;;;8.80;4.00;;;;;;;3.22;100.00;97740.56;5007092;28;20053;-65
2023/12/27 07:44:34;;;;;;;9.75;4.68;;;;;;;3.23;100.00;97741.38;5004964;28;20073;-64
2023/12/27 07:47:00;;;;;;;11.73;6.45;;;;;;;3.31;100.00;97753.78;5006761;28;20054;-64
2023/12/27 07:49:27;;;;;;;10.38;6.30;;;;;;;3.41;100.00;97759.63;4997753;28;20512;-63
2023/12/27 07:51:53;;;;;;;10.25;5.75;;;;;;;3.51;100.00;97770.78;5004001;28;20064;-62
2023/12/27 07:54:21;;;;;;;10.85;5.72;;;;;;;3.57;100.00;97769.19;5005686;28;20046;-62
2023/12/27 07:56:48;;;;;;;10.82;6.32;;;;;;;3.63;100.00;97757.69;5008265;28;20049;-63
2023/12/27 07:59:14;;;;;;;13.93;5.60;;;;;;;3.65;100.00;97754.81;5007649;28;20101;-64
2023/12/27 08:01:41;;;;;;;11.15;4.95;;;;;;;3.71;100.00;97748.66;5005843;28;20493;-64
2023/12/27 08:04:07;;;;;;;8.98;5.55;;;;;;;3.63;100.00;97744.31;5009137;28;20129;-63
2023/12/27 08:06:35;;;;;;;11.93;5.35;;;;;;;3.61;100.00;97742.84;5006386;28;20042;-63
2023/12/27 08:09:03;;;;;;;10.82;5.40;;;;;;;3.64;100.00;97751.31;5008273;28;20045;-63
2023/12/27 08:11:30;;;;;;;8.18;4.90;;;;;;;3.64;100.00;97753.97;5007286;28;20084;-64
2023/12/27 08:13:56;;;;;;;9.52;5.55;;;;;;;3.65;100.00;97749.47;5008393;28;20040;-63
2023/12/27 08:16:24;;;;;;;11.68;6.13;;;;;;;3.68;100.00;97751.72;5006340;28;20141;-64
2023/12/27 08:18:51;;;;;;;9.02;4.93;;;;;;;3.76;100.00;97756.13;5008707;28;20545;-63
2023/12/27 08:21:18;;;;;;;10.50;5.10;;;;;;;3.85;100.00;97759.44;5008237;28;20037;-62
2023/12/27 08:23:45;;;;;;;12.25;5.13;;;;;;;3.92;100.00;97756.78;5008496;28;20339;-62
2023/12/27 08:26:12;;;;;;;10.18;4.45;;;;;;;3.99;100.00;97755.81;5007989;28;20054;-64
2023/12/27 08:28:38;;;;;;;10.18;4.97;;;;;;;4.09;100.00;97746.56;5009482;28;20050;-63
2023/12/27 08:31:06;;;;;;;9.15;4.90;;;;;;;4.14;100.00;97744.09;5005137;28;20052;-63
2023/12/27 08:33:37;;;;;;;8.98;5.32;;;;;;;4.19;100.00;97740.78;5001966;28;20458;-65
2023/12/27 08:36:04;;;;;;;9.27;4.72;;;;;;;4.29;100.00;97728.69;5010758;28;20042;-64
2023/12/27 08:38:32;;;;;;;9.88;4.47;;;;;;;4.36;100.00;97722.50;5008818;28;20525;-62
2023/12/27 08:40:59;;;;;;;7.70;4.30;;;;;;;4.20;100.00;97708.44;5008248;28;20044;-63
2023/12/27 08:43:29;;;;;;;7.13;3.90;;;;;;;4.14;100.00;97707.41;4998996;28;20059;-64
2023/12/27 08:45:56;;;;;;;10.43;4.90;;;;;;;4.19;100.00;97708.63;5007682;28;20041;-63
2023/12/27 08:48:23;;;;;;;9.43;4.88;;;;;;;4.18;100.00;97707.81;5006925;28;20081;-64
2023/12/27 08:50:51;;;;;;;10.57;4.78;;;;;;;4.23;100.00;97701.84;5007810;28;20052;-64
2023/12/27 08:53:18;;;;;;;9.85;4.85;;;;;;;4.33;100.00;97688.06;5006908;28;20060;-63
2023/12/27 08:55:44;;;;;;;8.68;4.22;;;;;;;4.37;100.00;97673.22;5001703;28;20053;-64
2023/12/27 08:58:12;;;;;;;5.63;2.58;;;;;;;4.46;100.00;97671.97;5007390;28;20042;-63
2023/12/27 09:00:40;;;;;;;5.07;2.60;;;;;;;4.59;100.00;97670.34;5007842;28;20042;-65
2023/12/27 09:03:07;;;;;;;7.22;2.95;;;;;;;4.58;100.00;97677.56;4999223;28;20054;-62
2023/12/27 09:05:34;;;;;;;7.03;2.13;;;;;;;4.68;100.00;97688.72;5005224;28;20042;-65
2023/12/27 09:08:01;;;;;;;6.93;2.38;;;;;;;4.80;100.00;97683.53;5003228;28;20050;-65
2023/12/27 09:10:27;;;;;;;6.50;2.40;;;;;;;4.95;100.00;97685.19;5004193;28;20104;-62
2023/12/27 09:12:54;;;;;;;6.20;2.88;;;;;;;5.14;100.00;97683.53;4998718;28;20038;-63
2023/12/27 09:15:21;;;;;;;5.22;2.22;;;;;;;5.23;100.00;97681.44;4997338;28;20046;-64
2023/12/27 09:17:51;;;;;;;7.25;2.08;;;;;;;5.33;100.00;97676.47;5000237;28;20054;-63
2023/12/27 09:20:18;;;;;;;4.43;1.90;;;;;;;5.37;100.00;97667.97;5003332;28;20038;-65
2023/12/27 09:22:45;;;;;;;5.72;2.13;;;;;;;5.43;100.00;97670.66;5000267;28;20064;-65
2023/12/27 09:25:12;;;;;;;4.25;1.83;;;;;;;5.41;100.00;97674.56;5004897;28;20038;-62
2023/12/27 09:27:39;;;;;;;4.53;2.17;;;;;;;5.42;100.00;97669.00;5007303;28;20416;-65
2023/12/27 09:30:06;;;;;;;3.53;1.80;;;;;;;5.41;100.00;97670.03;5006775;28;20307;-63
2023/12/27 09:32:33;;;;;;;7.40;2.13;;;;;;;5.43;100.00;97672.50;5004924;28;20033;-65
2023/12/27 09:35:00;;;;;;;7.65;2.15;;;;;;;5.46;100.00;97672.09;5006410;28;20048;-65
2023/12/27 09:37:27;;;;;;;5.15;2.22;;;;;;;5.45;100.00;97671.25;5006567;28;20523;-65
2023/12/27 09:39:53;;;;;;;4.20;1.92;;;;;;;5.40;100.00;97668.41;5006190;28;20565;-63
2023/12/27 09:42:20;;;;;;;5.63;1.80;;;;;;;5.46;100.00;97666.72;5006438;28;20137;-62
2023/12/27 09:44:48;;;;;;;3.65;1.85;;;;;;;5.47;100.00;97668.38;5003022;28;20038;-65
2023/12/27 09:47:17;;;;;;;5.90;1.95;;;;;;;5.56;100.00;97663.56;5004758;28;20042;-65
2023/12/27 09:49:43;;;;;;;5.47;1.92;;;;;;;5.60;100.00;97667.47;5008201;28;20045;-65
2023/12/27 09:52:11;;;;;;;4.90;2.17;;;;;;;5.65;100.00;97664.16;5007478;28;20054;-50
2023/12/27 09:54:37;;;;;;;4.32;1.55;;;;;;;5.78;100.00;97663.31;4998756;28;20469;-55
2023/12/27 09:57:04;;;;;;;4.07;1.77;;;;;;;5.88;100.00;97655.59;5002731;28;20252;-52
2023/12/27 09:59:38;;;;;;;5.07;1.77;;;;;;;5.97;100.00;97658.88;4993413;28;20056;-53
2023/12/27 10:02:13;;;;;;;7.03;2.15;;;;;;;6.14;100.00;97661.06;5002000;28;20053;-51
2023/12/27 10:05:02;;;;;;;3.97;1.48;;;;;;;6.36;100.00;97653.47;5002727;28;20053;-63
2023/12/27 10:07:30;;;;;;;4.30;1.60;;;;;;;6.61;100.00;97655.38;5008120;28;20046;-62
2023/12/27 10:09:57;;;;;;;3.47;1.50;;;;;;;6.74;100.00;97644.50;5008839;28;20046;-62
2023/12/27 10:12:42;;;;;;;5.43;1.95;;;;;;;6.88;100.00;97634.44;5005522;28;20579;-61
2023/12/27 10:15:09;;;;;;;3.92;1.30;;;;;;;6.98;100.00;97611.56;5006781;28;20101;-63
2023/12/27 10:17:37;;;;;;;4.22;1.38;;;;;;;6.98;100.00;97617.78;5007222;28;20045;-63
2023/12/27 10:20:06;;;;;;;2.83;1.02;;;;;;;7.02;100.00;97602.00;5006151;28;20038;-63
2023/12/27 10:22:33;;;;;;;3.90;1.38;;;;;;;6.99;100.00;97603.28;5003606;28;20828;-63
2023/12/27 10:25:00;;;;;;;4.65;1.73;;;;;;;6.91;100.00;97606.25;5005320;28;20066;-64
2023/12/27 10:27:30;;;;;;;3.60;1.60;;;;;;;6.96;100.00;97602.91;5003732;28;20057;-63
2023/12/27 10:29:56;;;;;;;4.30;1.40;;;;;;;7.09;100.00;97610.84;5005038;28;20506;-63
2023/12/27 10:32:25;;;;;;;3.80;1.67;;;;;;;7.26;99.75;97605.66;5001855;28;20418;-62
2023/12/27 10:34:51;;;;;;;6.50;1.55;;;;;;;7.37;97.92;97604.09;5005332;28;20042;-64
2023/12/27 10:37:18;;;;;;;2.67;1.20;;;;;;;7.52;96.51;97587.53;5003949;28;20049;-64
2023/12/27 10:39:45;;;;;;;3.95;1.55;;;;;;;7.72;96.50;97585.63;5004167;28;20764;-63
2023/12/27 10:42:16;;;;;;;4.53;1.55;;;;;;;7.90;93.53;97579.38;5004466;28;20088;-62
2023/12/27 10:44:49;;;;;;;1.98;0.88;;;;;;;7.97;90.29;97581.97;4998928;28;20656;-64
2023/12/27 10:47:20;;;;;;;2.53;1.20;;;;;;;8.00;90.19;97573.44;5002888;28;20100;-65
2023/12/27 10:49:48;;;;;;;2.70;0.98;;;;;;;8.16;88.96;97571.94;5004547;28;20054;-63
2023/12/27 10:52:17;;;;;;;2.95;1.30;;;;;;;8.20;86.47;97573.13;5002790;28;20116;-63
2023/12/27 10:54:46;;;;;;;5.93;1.50;;;;;;;8.14;84.39;97569.47;5005023;28;20058;-62
2023/12/27 10:57:21;;;;;;;4.85;1.20;;;;;;;8.20;83.80;97571.25;5006531;28;20077;-63
2023/12/27 10:59:50;;;;;;;3.95;1.10;;;;;;;8.27;82.40;97562.22;5006998;28;20337;-64
2023/12/27 11:02:18;;;;;;;3.42;1.20;;;;;;;8.32;80.06;97565.03;5007004;28;20072;-64
2023/12/27 11:04:45;;;;;;;3.78;1.27;;;;;;;8.46;79.02;97555.69;5006990;28;20046;-64
2023/12/27 11:07:13;;;;;;;2.05;1.00;;;;;;;8.55;77.11;97547.28;5007372;28;20061;-63
2023/12/27 11:09:41;;;;;;;2.58;1.00;;;;;;;8.69;77.64;97542.44;5006790;28;20054;-63
2023/12/27 11:12:09;;;;;;;3.67;0.98;;;;;;;8.73;74.77;97537.41;5006284;28;20050;-64
2023/12/27 11:14:37;;;;;;;4.30;1.40;;;;;;;8.82;74.40;97536.78;5005449;28;20502;-63
2023/12/27 11:17:06;;;;;;;3.88;1.33;;;;;;;8.88;73.32;97548.53;5005296;28;20052;-62
2023/12/27 11:19:33;;;;;;;1.67;0.95;;;;;;;9.06;74.87;97544.03;5004871;28;20054;-66
2023/12/27 11:22:01;;;;;;;4.72;1.30;;;;;;;9.11;71.63;97536.88;5003467;28;20461;-66
2023/12/27 11:24:28;;;;;;;2.60;0.90;;;;;;;9.30;71.11;97520.50;5002546;28;20049;-67
2023/12/27 11:27:00;;;;;;;4.03;1.00;;;;;;;9.40;69.62;97521.75;5003134;28;20057;-66
2023/12/27 11:29:29;;;;;;;3.75;1.30;;;;;;;9.57;69.07;97516.41;5001773;28;20042;-67
2023/12/27 11:31:59;;;;;;;3.13;1.00;;;;;;;9.62;68.60;97513.81;5003181;28;20077;-66
2023/12/27 11:34:26;;;;;;;3.60;0.90;;;;;;;9.68;68.25;97510.13;5002504;28;20060;-67